createdAt,value
2023-01-23T00:01:30.998Z,2.05
2023-01-23T00:04:00.612Z,2.08
2023-01-23T00:06:29.247Z,2.01
2023-01-23T00:08:57.263Z,1.93
2023-01-23T00:11:27.147Z,1.89
2023-01-23T00:13:57.690Z,1.96
2023-01-23T00:16:27.241Z,2.03
2023-01-23T00:18:55.111Z,2.07
2023-01-23T00:21:25.941Z,2.06
2023-01-23T00:23:55.795Z,2.07
2023-01-23T00:26:25.188Z,2.05
2023-01-23T00:28:53.357Z,2.06
2023-01-23T00:31:25.742Z,2.09
2023-01-23T00:33:56.189Z,2.09
2023-01-23T00:36:23.999Z,2.13
2023-01-23T00:38:51.838Z,2.15
2023-01-23T00:41:19.666Z,2.16
2023-01-23T00:43:48.317Z,2.19
2023-01-23T00:46:17.963Z,2.20
2023-01-23T00:48:47.279Z,2.19
2023-01-23T00:51:15.185Z,2.10
2023-01-23T00:53:43.172Z,2.05
2023-01-23T00:56:11.042Z,2.05
2023-01-23T00:58:40.510Z,1.98
2023-01-23T01:01:09.105Z,2.00
2023-01-23T01:03:37.822Z,2.04
2023-01-23T01:06:07.200Z,2.06
2023-01-23T01:08:35.031Z,2.02
2023-01-23T01:11:02.865Z,1.90
2023-01-23T01:13:32.095Z,1.82
2023-01-23T01:16:01.818Z,1.87
2023-01-23T01:18:30.801Z,1.89
2023-01-23T01:20:59.065Z,1.87
2023-01-23T01:23:28.399Z,1.89
2023-01-23T01:26:00.118Z,1.87
2023-01-23T01:28:30.241Z,1.82
2023-01-23T01:30:58.479Z,1.77
2023-01-23T01:33:28.616Z,1.71
2023-01-23T01:35:57.255Z,1.73
2023-01-23T01:38:25.430Z,1.78
2023-01-23T01:40:54.670Z,1.82
2023-01-23T01:43:24.803Z,1.76
2023-01-23T01:46:20.886Z,1.81
2023-01-23T01:49:01.932Z,1.83
2023-01-23T01:51:32.912Z,1.79
2023-01-23T01:54:07.206Z,1.81
2023-01-23T01:56:41.812Z,1.84
2023-01-23T01:59:12.108Z,1.84
2023-01-23T02:01:41.815Z,1.81
2023-01-23T02:04:10.833Z,1.83
2023-01-23T02:06:38.639Z,1.80
2023-01-23T02:09:11.870Z,1.82
2023-01-23T02:11:41.158Z,1.85
2023-01-23T02:14:10.268Z,1.92
2023-01-23T02:16:41.139Z,1.88
2023-01-23T02:19:18.293Z,1.83
2023-01-23T02:21:49.270Z,1.87
2023-01-23T02:24:24.783Z,1.77
2023-01-23T02:26:55.230Z,1.78
2023-01-23T02:29:25.781Z,1.74
2023-01-23T02:31:56.795Z,1.80
2023-01-23T02:34:26.091Z,1.84
2023-01-23T02:36:58.595Z,1.88
2023-01-23T02:39:27.571Z,1.87
2023-01-23T02:41:58.797Z,1.86
2023-01-23T02:44:40.959Z,1.87
2023-01-23T02:47:12.353Z,1.89
2023-01-23T02:49:42.744Z,1.95
2023-01-23T02:52:10.980Z,2.02
2023-01-23T02:54:40.351Z,2.05
2023-01-23T02:57:09.634Z,2.06
2023-01-23T02:59:54.806Z,2.04
2023-01-23T03:02:22.818Z,2.02
2023-01-23T03:04:50.686Z,2.00
2023-01-23T03:07:18.471Z,2.00
2023-01-23T03:09:48.748Z,2.02
2023-01-23T03:12:18.230Z,2.01
2023-01-23T03:14:46.142Z,1.94
2023-01-23T03:17:14.873Z,1.91
2023-01-23T03:19:43.130Z,1.97
2023-01-23T03:22:11.053Z,2.01
2023-01-23T03:24:40.204Z,2.03
2023-01-23T03:27:08.635Z,2.09
2023-01-23T03:30:02.454Z,2.10
2023-01-23T03:32:30.846Z,1.97
2023-01-23T03:34:59.377Z,1.93
2023-01-23T03:37:27.351Z,1.98
2023-01-23T03:40:13.783Z,1.96
2023-01-23T03:42:41.797Z,1.93
2023-01-23T03:45:13.321Z,1.94
2023-01-23T03:47:42.577Z,1.95
2023-01-23T03:50:11.344Z,1.93
2023-01-23T03:52:40.577Z,1.96
2023-01-23T03:55:09.804Z,1.98
2023-01-23T03:57:38.547Z,2.01
2023-01-23T04:00:09.938Z,1.99
2023-01-23T04:02:51.035Z,1.97
2023-01-23T04:05:18.863Z,1.98
2023-01-23T04:07:46.658Z,1.94
2023-01-23T04:10:15.185Z,1.94
2023-01-23T04:12:45.254Z,1.88
2023-01-23T04:15:13.739Z,1.82
2023-01-23T04:17:42.553Z,1.89
2023-01-23T04:20:13.849Z,1.93
2023-01-23T04:22:43.610Z,2.00
2023-01-23T04:25:11.823Z,2.04
2023-01-23T04:27:39.762Z,2.09
2023-01-23T04:30:10.435Z,2.10
2023-01-23T04:32:38.529Z,2.11
2023-01-23T04:35:07.225Z,2.09
2023-01-23T04:37:38.974Z,2.04
2023-01-23T04:40:08.893Z,2.02
2023-01-23T04:42:45.808Z,2.06
2023-01-23T04:45:27.762Z,2.04
2023-01-23T04:48:18.453Z,2.00
2023-01-23T04:50:46.248Z,2.01
2023-01-23T04:53:15.516Z,2.04
2023-01-23T04:55:44.431Z,1.98
2023-01-23T04:58:15.306Z,1.94
2023-01-23T05:00:43.151Z,1.90
2023-01-23T05:03:11.040Z,1.93
2023-01-23T05:05:44.236Z,1.90
2023-01-23T05:08:12.648Z,1.92
2023-01-23T05:10:43.444Z,1.89
2023-01-23T05:13:14.142Z,1.87
2023-01-23T05:15:41.939Z,1.92
2023-01-23T05:18:09.803Z,1.95
2023-01-23T05:20:37.728Z,2.00
2023-01-23T05:23:06.204Z,1.97
2023-01-23T05:25:43.160Z,1.98
2023-01-23T05:28:11.863Z,1.96
2023-01-23T05:30:45.817Z,1.92
2023-01-23T05:33:23.002Z,1.89
2023-01-23T05:35:51.300Z,1.89
2023-01-23T05:38:19.780Z,1.91
2023-01-23T05:40:49.056Z,1.94
2023-01-23T05:43:36.436Z,1.95
2023-01-23T05:46:21.608Z,1.95
2023-01-23T05:48:53.286Z,1.94
2023-01-23T05:51:23.237Z,1.94
2023-01-23T05:53:52.155Z,1.98
2023-01-23T05:56:21.311Z,1.97
2023-01-23T05:59:07.468Z,1.93
2023-01-23T06:01:42.125Z,1.85
2023-01-23T06:04:30.182Z,1.80
2023-01-23T06:07:17.902Z,1.83
2023-01-23T06:09:46.846Z,1.82
2023-01-23T06:12:16.049Z,1.83
2023-01-23T06:14:43.904Z,1.81
2023-01-23T06:17:13.435Z,1.81
2023-01-23T06:19:41.264Z,1.76
2023-01-23T06:22:09.760Z,1.72
2023-01-23T06:24:55.762Z,1.76
2023-01-23T06:27:24.950Z,1.81
2023-01-23T06:29:53.358Z,1.84
2023-01-23T06:32:23.441Z,1.88
2023-01-23T06:34:52.214Z,1.95
2023-01-23T06:37:20.077Z,1.97
2023-01-23T06:39:47.867Z,2.00
2023-01-23T06:42:17.021Z,2.04
2023-01-23T06:44:50.633Z,2.10
2023-01-23T06:47:18.965Z,2.13
2023-01-23T06:49:52.057Z,2.11
2023-01-23T06:52:19.975Z,2.16
2023-01-23T06:54:48.617Z,2.16
2023-01-23T06:57:17.325Z,2.15
2023-01-23T06:59:47.602Z,2.04
2023-01-23T07:02:18.308Z,2.02
2023-01-23T07:04:48.690Z,2.01
2023-01-23T07:07:16.474Z,1.95
2023-01-23T07:09:45.244Z,1.88
2023-01-23T07:12:25.343Z,1.89
2023-01-23T07:14:53.159Z,1.90
2023-01-23T07:17:30.414Z,1.94
2023-01-23T07:19:58.290Z,1.95
2023-01-23T07:22:26.353Z,1.91
2023-01-23T07:24:54.186Z,1.95
2023-01-23T07:27:22.001Z,1.90
2023-01-23T07:29:49.789Z,1.92
2023-01-23T07:32:17.641Z,1.94
2023-01-23T07:34:46.774Z,1.96
2023-01-23T07:37:14.633Z,2.00
2023-01-23T07:39:42.402Z,2.06
2023-01-23T07:42:10.519Z,2.06
2023-01-23T07:44:42.309Z,2.05
2023-01-23T07:47:10.548Z,2.06
2023-01-23T07:49:38.328Z,2.10
2023-01-23T07:52:07.790Z,2.04
2023-01-23T07:54:35.710Z,2.04
2023-01-23T07:57:03.623Z,1.94
2023-01-23T07:59:31.415Z,1.83
2023-01-23T08:01:59.413Z,1.84
2023-01-23T08:04:27.193Z,1.89
2023-01-23T08:06:55.827Z,1.95
2023-01-23T08:09:26.526Z,2.05
2023-01-23T08:11:54.355Z,2.10
2023-01-23T08:14:22.241Z,2.10
2023-01-23T08:16:51.174Z,2.14
2023-01-23T08:19:19.099Z,2.14
2023-01-23T08:21:47.912Z,2.15
2023-01-23T08:24:16.069Z,2.17
2023-01-23T08:26:45.446Z,2.16
2023-01-23T08:29:13.640Z,2.22
2023-01-23T08:31:41.700Z,2.27
2023-01-23T08:34:09.521Z,2.35
2023-01-23T08:36:37.437Z,2.41
2023-01-23T08:39:05.778Z,2.39
2023-01-23T08:41:33.557Z,2.37
2023-01-23T08:44:03.917Z,2.42
2023-01-23T08:46:31.787Z,2.41
2023-01-23T08:48:59.610Z,2.44
2023-01-23T08:51:27.852Z,2.46
2023-01-23T08:53:55.692Z,2.58
2023-01-23T08:56:25.080Z,2.58
2023-01-23T08:58:53.062Z,2.66
2023-01-23T09:01:24.303Z,2.68
2023-01-23T09:03:52.439Z,2.71
2023-01-23T09:06:22.034Z,2.71
2023-01-23T09:08:50.123Z,2.80
2023-01-23T09:11:18.950Z,2.87
2023-01-23T09:13:47.724Z,2.86
2023-01-23T09:16:16.229Z,2.91
2023-01-23T09:18:45.478Z,2.93
2023-01-23T09:21:15.713Z,3.00
2023-01-23T09:23:43.749Z,3.15
2023-01-23T09:26:13.378Z,3.22
2023-01-23T09:28:43.088Z,3.28
2023-01-23T09:31:12.991Z,3.31
2023-01-23T09:33:42.009Z,3.32
2023-01-23T09:36:12.286Z,3.40
2023-01-23T09:38:40.127Z,3.43
2023-01-23T09:41:17.791Z,3.44
2023-01-23T09:43:54.630Z,3.47
2023-01-23T09:46:27.265Z,3.63
2023-01-23T09:49:01.439Z,3.73
2023-01-23T09:51:42.404Z,3.78
2023-01-23T09:54:21.501Z,3.80
2023-01-23T09:56:50.330Z,3.75
2023-01-23T09:59:30.306Z,3.71
2023-01-23T10:01:58.489Z,3.77
2023-01-23T10:04:26.308Z,3.83
2023-01-23T10:07:14.767Z,3.92
2023-01-23T10:10:00.550Z,3.93
2023-01-23T10:12:40.756Z,4.02
2023-01-23T10:15:20.670Z,4.09
2023-01-23T10:18:00.111Z,4.19
2023-01-23T10:20:49.335Z,4.16
2023-01-23T10:23:30.233Z,4.29
2023-01-23T10:25:58.488Z,4.43
2023-01-23T10:28:34.991Z,4.54
2023-01-23T10:31:08.821Z,4.60
2023-01-23T10:33:43.725Z,4.65
2023-01-23T10:36:24.012Z,4.71
2023-01-23T10:39:01.623Z,4.83
2023-01-23T10:41:29.389Z,5.02
2023-01-23T10:43:58.041Z,5.19
2023-01-23T10:46:31.952Z,5.23
2023-01-23T10:49:03.434Z,5.35
2023-01-23T10:51:45.637Z,5.41
2023-01-23T10:54:31.240Z,5.32
2023-01-23T10:57:01.619Z,5.26
2023-01-23T10:59:36.640Z,5.14
2023-01-23T11:02:20.111Z,5.18
2023-01-23T11:04:51.391Z,5.33
2023-01-23T11:07:20.552Z,5.34
2023-01-23T11:09:50.913Z,5.34
2023-01-23T11:12:21.226Z,5.27
2023-01-23T11:14:49.520Z,5.28
2023-01-23T11:17:21.635Z,5.31
2023-01-23T11:19:54.257Z,5.21
2023-01-23T11:22:29.032Z,5.23
2023-01-23T11:24:58.866Z,5.17
2023-01-23T11:27:29.794Z,5.14
2023-01-23T11:30:19.679Z,5.05
2023-01-23T11:32:55.047Z,5.08
2023-01-23T11:35:28.474Z,5.22
2023-01-23T11:37:58.128Z,5.35
2023-01-23T11:40:27.289Z,5.35
2023-01-23T11:42:55.941Z,5.38
2023-01-23T11:45:34.889Z,5.28
2023-01-23T11:48:18.174Z,5.29
2023-01-23T11:50:55.315Z,5.39
2023-01-23T11:53:42.053Z,5.48
2023-01-23T11:56:38.201Z,5.57
2023-01-23T11:59:25.925Z,5.70
2023-01-23T12:02:15.018Z,5.75
2023-01-23T12:05:08.224Z,5.82
2023-01-23T12:07:46.471Z,5.76
2023-01-23T12:10:23.782Z,5.70
2023-01-23T12:13:02.235Z,5.65
2023-01-23T12:15:37.185Z,5.68
2023-01-23T12:18:21.625Z,5.71
2023-01-23T12:20:58.026Z,5.87
2023-01-23T12:23:45.484Z,6.00
2023-01-23T12:26:16.524Z,5.96
2023-01-23T12:29:15.603Z,5.85
2023-01-23T12:32:02.834Z,5.81
2023-01-23T12:34:48.523Z,5.89
2023-01-23T12:37:31.176Z,5.96
2023-01-23T12:40:08.462Z,5.94
2023-01-23T12:42:42.253Z,5.99
2023-01-23T12:45:19.029Z,5.99
2023-01-23T12:47:55.013Z,5.90
2023-01-23T12:50:36.050Z,5.90
2023-01-23T12:53:08.598Z,5.91
2023-01-23T12:55:39.597Z,5.93
2023-01-23T12:58:13.480Z,5.91
2023-01-23T13:00:53.451Z,5.96
2023-01-23T13:03:46.857Z,6.05
2023-01-23T13:06:31.109Z,6.05
2023-01-23T13:09:16.657Z,6.08
2023-01-23T13:11:55.233Z,6.01
2023-01-23T13:14:32.751Z,6.00
2023-01-23T13:17:04.627Z,5.99
2023-01-23T13:19:51.517Z,5.96
2023-01-23T13:22:29.326Z,5.89
2023-01-23T13:25:14.069Z,5.77
2023-01-23T13:27:47.344Z,5.67
2023-01-23T13:30:44.014Z,5.53
2023-01-23T13:33:58.727Z,5.63
2023-01-23T13:36:36.542Z,5.61
2023-01-23T13:39:27.096Z,5.60
2023-01-23T13:42:35.626Z,5.70
2023-01-23T13:45:29.948Z,5.66
2023-01-23T14:20:24.488Z,4.91
2023-01-23T14:22:55.841Z,4.87
2023-01-23T14:25:23.797Z,4.84
2023-01-23T14:28:03.931Z,4.81
2023-01-23T14:30:33.215Z,4.85
2023-01-23T14:33:01.121Z,4.81
2023-01-23T14:35:30.725Z,4.73
2023-01-23T14:38:01.238Z,4.71
2023-01-23T14:40:37.414Z,4.70
2023-01-23T14:43:09.863Z,4.69
2023-01-23T14:45:39.338Z,4.63
2023-01-23T14:48:14.614Z,4.59
2023-01-23T14:50:42.849Z,4.55
2023-01-23T14:53:14.897Z,4.59
2023-01-23T14:55:47.189Z,4.60
2023-01-23T14:58:21.747Z,4.58
2023-01-23T15:00:53.142Z,4.58
2023-01-23T15:03:39.301Z,4.56
2023-01-23T15:06:12.568Z,4.55
2023-01-23T15:08:40.897Z,4.63
2023-01-23T15:11:12.030Z,4.65
2023-01-23T15:13:46.289Z,4.51
2023-01-23T15:16:20.696Z,4.55
2023-01-23T15:18:59.711Z,4.57
2023-01-23T15:21:31.790Z,4.56
2023-01-23T15:24:04.171Z,4.57
2023-01-23T15:26:35.236Z,4.59
2023-01-23T15:29:05.167Z,4.62
2023-01-23T15:31:36.496Z,4.50
2023-01-23T15:34:21.393Z,4.48
2023-01-23T15:36:51.933Z,4.54
2023-01-23T15:39:23.328Z,4.56
2023-01-23T15:41:52.775Z,4.52
2023-01-23T15:44:22.654Z,4.41
2023-01-23T15:46:52.031Z,4.40
2023-01-23T15:49:25.816Z,4.38
2023-01-23T15:51:56.665Z,4.31
2023-01-23T15:54:29.472Z,4.22
2023-01-23T15:57:07.244Z,4.19
2023-01-23T15:59:36.941Z,4.17
2023-01-23T16:02:08.219Z,4.12
2023-01-23T16:04:38.841Z,4.02
2023-01-23T16:07:08.421Z,3.94
2023-01-23T16:09:38.951Z,3.92
2023-01-23T16:12:15.540Z,3.92
2023-01-23T16:14:43.314Z,3.85
2023-01-23T16:17:16.992Z,3.80
2023-01-23T16:19:45.585Z,3.69
2023-01-23T16:22:23.387Z,3.53
2023-01-23T16:24:51.394Z,3.46
2023-01-23T16:27:22.934Z,3.36
2023-01-23T16:29:50.732Z,3.32
2023-01-23T16:32:19.982Z,3.33
2023-01-23T16:34:47.998Z,3.38
2023-01-23T16:37:18.705Z,3.43
2023-01-23T16:39:47.670Z,3.45
2023-01-23T16:42:20.158Z,3.53
2023-01-23T16:44:47.939Z,3.60
2023-01-23T16:47:15.886Z,3.67
2023-01-23T16:49:54.030Z,3.65
2023-01-23T16:52:26.154Z,3.69
2023-01-23T16:54:55.557Z,3.70
2023-01-23T16:57:24.586Z,3.75
2023-01-23T16:59:53.154Z,3.76
2023-01-23T17:02:23.877Z,3.72
2023-01-23T17:04:53.268Z,3.69
2023-01-23T17:07:21.406Z,3.70
2023-01-23T17:09:50.035Z,3.69
2023-01-23T17:12:21.604Z,3.66
2023-01-23T17:14:52.451Z,3.66
2023-01-23T17:17:22.722Z,3.65
2023-01-23T17:19:50.603Z,3.63
2023-01-23T17:22:24.518Z,3.61
2023-01-23T17:24:52.534Z,3.62
2023-01-23T17:27:20.396Z,3.67
2023-01-23T17:29:49.125Z,3.69
2023-01-23T17:32:27.953Z,3.58
2023-01-23T17:34:56.121Z,3.58
2023-01-23T17:37:25.520Z,3.54
2023-01-23T17:39:53.378Z,3.47
2023-01-23T17:42:22.024Z,3.49
2023-01-23T17:44:50.626Z,3.52
2023-01-23T17:47:19.023Z,3.61
2023-01-23T17:49:54.282Z,3.64
2023-01-23T17:52:22.467Z,3.67
2023-01-23T17:54:51.688Z,3.71
2023-01-23T17:57:19.499Z,3.74
2023-01-23T17:59:47.378Z,3.75
2023-01-23T18:02:26.621Z,3.76
2023-01-23T18:04:54.895Z,3.72
2023-01-23T18:07:22.829Z,3.61
2023-01-23T18:09:52.472Z,3.58
2023-01-23T18:12:30.054Z,3.56
2023-01-23T18:15:06.101Z,3.58
2023-01-23T18:17:41.016Z,3.59
2023-01-23T18:20:17.556Z,3.62
2023-01-23T18:22:46.025Z,3.63
2023-01-23T18:25:17.154Z,3.66
2023-01-23T18:27:50.099Z,3.65
2023-01-23T18:30:34.307Z,3.65
2023-01-23T18:33:23.670Z,3.66
2023-01-23T18:36:04.478Z,3.72
2023-01-23T18:38:39.780Z,3.75
2023-01-23T18:41:15.447Z,3.81
2023-01-23T18:43:48.643Z,3.87
2023-01-23T18:46:18.639Z,3.90
2023-01-23T18:48:49.491Z,3.89
2023-01-23T18:51:29.894Z,3.80
2023-01-23T18:54:10.243Z,3.79
2023-01-23T18:56:55.848Z,3.78
2023-01-23T18:59:29.951Z,3.73
2023-01-23T19:02:09.423Z,3.67
2023-01-23T19:04:45.728Z,3.64
2023-01-23T19:07:18.384Z,3.63
2023-01-23T19:09:47.520Z,3.66
2023-01-23T19:12:26.689Z,3.71
2023-01-23T19:15:06.150Z,3.62
2023-01-23T19:17:43.692Z,3.56
2023-01-23T19:20:23.882Z,3.52
2023-01-23T19:23:02.696Z,3.50
2023-01-23T19:25:31.066Z,3.50
2023-01-23T19:28:01.856Z,3.44
2023-01-23T19:30:30.451Z,3.44
2023-01-23T19:32:58.272Z,3.43
2023-01-23T19:35:26.136Z,3.41
2023-01-23T19:37:53.994Z,3.37
2023-01-23T19:40:21.795Z,3.38
2023-01-23T19:42:58.641Z,3.42
2023-01-23T19:45:34.862Z,3.42
2023-01-23T19:48:02.656Z,3.44
2023-01-23T19:50:30.460Z,3.36
2023-01-23T19:53:00.213Z,3.34
2023-01-23T19:55:31.373Z,3.36
2023-01-23T19:57:59.491Z,3.34
2023-01-23T20:00:29.621Z,3.36
2023-01-23T20:02:59.146Z,3.37
2023-01-23T20:05:27.483Z,3.41
2023-01-23T20:07:55.356Z,3.43
2023-01-23T20:10:23.421Z,3.43
2023-01-23T20:12:54.421Z,3.40
2023-01-23T20:15:24.256Z,3.36
2023-01-23T20:17:52.985Z,3.30
2023-01-23T20:20:22.982Z,3.31
2023-01-23T20:22:51.053Z,3.29
2023-01-23T20:25:19.297Z,3.28
2023-01-23T20:27:47.217Z,3.32
2023-01-23T20:30:18.564Z,3.38
2023-01-23T20:32:46.457Z,3.43
2023-01-23T20:35:14.244Z,3.47
2023-01-23T20:37:43.394Z,3.44
2023-01-23T20:40:12.442Z,3.37
2023-01-23T20:42:41.295Z,3.32
2023-01-23T20:45:09.921Z,3.30
2023-01-23T20:47:37.934Z,3.33
2023-01-23T20:50:06.481Z,3.35
2023-01-23T20:52:51.597Z,3.35
2023-01-23T20:55:21.064Z,3.40
2023-01-23T20:58:06.766Z,3.36
2023-01-23T21:00:34.579Z,3.36
2023-01-23T21:03:02.379Z,3.35
2023-01-23T21:05:30.193Z,3.32
2023-01-23T21:07:58.019Z,3.36
2023-01-23T21:10:27.190Z,3.36
2023-01-23T21:12:54.993Z,3.34
2023-01-23T21:15:23.271Z,3.35
2023-01-23T21:17:51.331Z,3.32
2023-01-23T21:20:19.209Z,3.27
2023-01-23T21:22:47.536Z,3.31
2023-01-23T21:25:15.392Z,3.33
2023-01-23T21:27:44.550Z,3.30
2023-01-23T21:30:13.089Z,3.33
2023-01-23T21:32:40.869Z,3.29
2023-01-23T21:35:09.571Z,3.24
2023-01-23T21:37:37.551Z,3.23
2023-01-23T21:40:06.402Z,3.25
2023-01-23T21:42:34.189Z,3.26
2023-01-23T21:45:03.365Z,3.27
2023-01-23T21:47:31.154Z,3.23
2023-01-23T21:49:58.894Z,3.18
2023-01-23T21:52:26.719Z,3.22
2023-01-23T21:54:56.119Z,3.19
2023-01-23T21:57:24.693Z,3.15
2023-01-23T22:00:06.430Z,3.14
2023-01-23T22:02:49.134Z,3.10
2023-01-23T22:05:20.125Z,3.11
2023-01-23T22:07:48.522Z,3.13
2023-01-23T22:10:17.027Z,3.14
2023-01-23T22:12:44.803Z,3.13
2023-01-23T22:15:12.777Z,3.11
2023-01-23T22:17:41.916Z,3.11
2023-01-23T22:20:11.311Z,3.10
2023-01-23T22:22:39.096Z,3.10
2023-01-23T22:25:08.030Z,3.09
2023-01-23T22:27:36.074Z,3.09
2023-01-23T22:30:04.914Z,3.13
2023-01-23T22:32:34.445Z,3.09
2023-01-23T22:35:03.686Z,3.12
2023-01-23T22:37:31.782Z,3.12
2023-01-23T22:39:59.600Z,3.08
2023-01-23T22:42:27.411Z,3.11
2023-01-23T22:44:55.231Z,3.05
2023-01-23T22:47:23.025Z,3.00
2023-01-23T22:49:50.850Z,3.02
2023-01-23T22:52:20.025Z,3.07
2023-01-23T22:54:47.906Z,3.00
2023-01-23T22:57:15.705Z,3.00
2023-01-23T22:59:43.476Z,3.05
2023-01-23T23:02:11.283Z,3.07
2023-01-23T23:04:39.075Z,3.07
2023-01-23T23:07:06.882Z,3.05
2023-01-23T23:09:36.038Z,3.07
2023-01-23T23:12:03.981Z,3.07
2023-01-23T23:14:31.742Z,3.08
2023-01-23T23:16:59.761Z,3.04
2023-01-23T23:19:27.574Z,3.02
2023-01-23T23:21:55.408Z,3.01
2023-01-23T23:24:23.253Z,3.01
2023-01-23T23:26:52.445Z,3.01
2023-01-23T23:29:20.241Z,2.98
2023-01-23T23:31:51.560Z,3.01
2023-01-23T23:34:19.948Z,2.99
2023-01-23T23:36:47.950Z,3.00
2023-01-23T23:39:15.728Z,2.95
2023-01-23T23:41:43.522Z,2.93
2023-01-23T23:44:12.744Z,2.95
2023-01-23T23:46:40.565Z,2.90
2023-01-23T23:49:08.386Z,2.89
2023-01-23T23:51:36.141Z,2.95
2023-01-23T23:54:04.144Z,2.96
2023-01-23T23:56:32.207Z,2.98
2023-01-23T23:59:00.049Z,2.93
